sensor_id;sensor_type;location;lat;lon;timestamp;temperature;humidity
11908;DHT22;6014;47.690;9.130;2023-08-07T00:02:19;13.60;99.90
11908;DHT22;6014;47.690;9.130;2023-08-07T00:04:47;13.50;99.90
11908;DHT22;6014;47.690;9.130;2023-08-07T00:07:15;13.40;99.90
11908;DHT22;6014;47.690;9.130;2023-08-07T00:09:53;13.30;99.90
11908;DHT22;6014;47.690;9.130;2023-08-07T00:12:23;13.30;99.90
11908;DHT22;6014;47.690;9.130;2023-08-07T00:14:52;13.30;99.90
11908;DHT22;6014;47.690;9.130;2023-08-07T00:17:20;13.30;99.90
11908;DHT22;6014;47.690;9.130;2023-08-07T00:19:48;13.30;99.90
11908;DHT22;6014;47.690;9.130;2023-08-07T00:22:16;13.30;99.90
11908;DHT22;6014;47.690;9.130;2023-08-07T00:24:44;13.30;99.90
11908;DHT22;6014;47.690;9.130;2023-08-07T00:27:13;13.30;99.90
11908;DHT22;6014;47.690;9.130;2023-08-07T00:29:42;13.30;99.90
11908;DHT22;6014;47.690;9.130;2023-08-07T00:32:10;13.40;99.90
11908;DHT22;6014;47.690;9.130;2023-08-07T00:34:38;13.40;99.90
11908;DHT22;6014;47.690;9.130;2023-08-07T00:37:08;13.30;99.90
11908;DHT22;6014;47.690;9.130;2023-08-07T00:39:36;13.40;99.90
11908;DHT22;6014;47.690;9.130;2023-08-07T00:42:04;13.40;99.90
11908;DHT22;6014;47.690;9.130;2023-08-07T00:44:33;13.50;99.90
11908;DHT22;6014;47.690;9.130;2023-08-07T00:47:02;13.60;99.90
11908;DHT22;6014;47.690;9.130;2023-08-07T00:49:31;13.60;99.90
11908;DHT22;6014;47.690;9.130;2023-08-07T00:51:59;13.60;99.90
11908;DHT22;6014;47.690;9.130;2023-08-07T00:54:27;13.60;99.90
11908;DHT22;6014;47.690;9.130;2023-08-07T00:57:13;13.60;99.90
11908;DHT22;6014;47.690;9.130;2023-08-07T00:59:42;13.60;99.90
11908;DHT22;6014;47.690;9.130;2023-08-07T01:02:12;13.60;99.90
11908;DHT22;6014;47.690;9.130;2023-08-07T01:04:41;13.50;99.90
11908;DHT22;6014;47.690;9.130;2023-08-07T01:07:09;13.50;99.90
11908;DHT22;6014;47.690;9.130;2023-08-07T01:09:38;13.50;99.90
11908;DHT22;6014;47.690;9.130;2023-08-07T01:12:11;13.50;99.90
11908;DHT22;6014;47.690;9.130;2023-08-07T01:14:49;13.50;99.90
11908;DHT22;6014;47.690;9.130;2023-08-07T01:17:21;13.50;99.90
11908;DHT22;6014;47.690;9.130;2023-08-07T01:19:50;13.50;99.90
11908;DHT22;6014;47.690;9.130;2023-08-07T01:22:20;13.50;99.90
11908;DHT22;6014;47.690;9.130;2023-08-07T01:24:50;13.50;99.90
11908;DHT22;6014;47.690;9.130;2023-08-07T01:27:31;13.50;99.90
11908;DHT22;6014;47.690;9.130;2023-08-07T01:30:09;13.50;99.90
11908;DHT22;6014;47.690;9.130;2023-08-07T01:32:45;13.40;99.90
11908;DHT22;6014;47.690;9.130;2023-08-07T01:35:16;13.30;99.90
11908;DHT22;6014;47.690;9.130;2023-08-07T01:37:47;13.30;99.90
11908;DHT22;6014;47.690;9.130;2023-08-07T01:40:16;13.20;99.90
11908;DHT22;6014;47.690;9.130;2023-08-07T01:42:45;13.20;99.90
11908;DHT22;6014;47.690;9.130;2023-08-07T01:45:14;13.10;99.90
11908;DHT22;6014;47.690;9.130;2023-08-07T01:47:42;13.10;99.90
11908;DHT22;6014;47.690;9.130;2023-08-07T01:50:10;13.10;99.90
11908;DHT22;6014;47.690;9.130;2023-08-07T01:52:38;13.10;99.90
11908;DHT22;6014;47.690;9.130;2023-08-07T01:55:15;13.00;99.90
11908;DHT22;6014;47.690;9.130;2023-08-07T01:57:43;13.00;99.90
11908;DHT22;6014;47.690;9.130;2023-08-07T02:00:12;13.00;99.90
11908;DHT22;6014;47.690;9.130;2023-08-07T02:02:40;13.00;99.90
11908;DHT22;6014;47.690;9.130;2023-08-07T02:05:11;13.00;99.90
11908;DHT22;6014;47.690;9.130;2023-08-07T02:07:39;13.10;99.90
11908;DHT22;6014;47.690;9.130;2023-08-07T02:10:08;13.00;99.90
11908;DHT22;6014;47.690;9.130;2023-08-07T02:12:38;13.10;99.90
11908;DHT22;6014;47.690;9.130;2023-08-07T02:15:09;13.10;99.90
11908;DHT22;6014;47.690;9.130;2023-08-07T02:17:37;13.10;99.90
11908;DHT22;6014;47.690;9.130;2023-08-07T02:20:08;13.10;99.90
11908;DHT22;6014;47.690;9.130;2023-08-07T02:22:37;13.10;99.90
11908;DHT22;6014;47.690;9.130;2023-08-07T02:25:05;13.00;99.90
11908;DHT22;6014;47.690;9.130;2023-08-07T02:27:34;13.00;99.90
11908;DHT22;6014;47.690;9.130;2023-08-07T02:30:04;13.00;99.90
11908;DHT22;6014;47.690;9.130;2023-08-07T02:32:33;13.00;99.90
11908;DHT22;6014;47.690;9.130;2023-08-07T02:35:01;13.00;99.90
11908;DHT22;6014;47.690;9.130;2023-08-07T02:37:29;13.00;99.90
11908;DHT22;6014;47.690;9.130;2023-08-07T02:39:57;13.10;99.90
11908;DHT22;6014;47.690;9.130;2023-08-07T02:42:25;13.10;99.90
11908;DHT22;6014;47.690;9.130;2023-08-07T02:44:53;13.10;99.90
11908;DHT22;6014;47.690;9.130;2023-08-07T02:47:22;13.10;99.90
11908;DHT22;6014;47.690;9.130;2023-08-07T02:49:51;13.20;99.90
11908;DHT22;6014;47.690;9.130;2023-08-07T02:52:19;13.10;99.90
11908;DHT22;6014;47.690;9.130;2023-08-07T02:54:47;13.20;99.90
11908;DHT22;6014;47.690;9.130;2023-08-07T02:57:15;13.10;99.90
11908;DHT22;6014;47.690;9.130;2023-08-07T02:59:43;13.00;99.90
11908;DHT22;6014;47.690;9.130;2023-08-07T03:02:11;13.00;99.90
11908;DHT22;6014;47.690;9.130;2023-08-07T03:04:40;12.90;99.90
11908;DHT22;6014;47.690;9.130;2023-08-07T03:07:08;12.80;99.90
11908;DHT22;6014;47.690;9.130;2023-08-07T03:09:37;12.80;99.90
11908;DHT22;6014;47.690;9.130;2023-08-07T03:12:05;12.80;99.90
11908;DHT22;6014;47.690;9.130;2023-08-07T03:14:33;12.70;99.90
11908;DHT22;6014;47.690;9.130;2023-08-07T03:17:02;12.70;99.90
11908;DHT22;6014;47.690;9.130;2023-08-07T03:19:30;12.60;99.90
11908;DHT22;6014;47.690;9.130;2023-08-07T03:21:59;12.60;99.90
11908;DHT22;6014;47.690;9.130;2023-08-07T03:24:29;12.50;99.90
11908;DHT22;6014;47.690;9.130;2023-08-07T03:26:57;12.50;99.90
11908;DHT22;6014;47.690;9.130;2023-08-07T03:29:26;12.50;99.90
11908;DHT22;6014;47.690;9.130;2023-08-07T03:31:54;12.50;99.90
11908;DHT22;6014;47.690;9.130;2023-08-07T03:34:22;12.50;99.90
11908;DHT22;6014;47.690;9.130;2023-08-07T03:36:50;12.40;99.90
11908;DHT22;6014;47.690;9.130;2023-08-07T03:39:20;12.40;99.90
11908;DHT22;6014;47.690;9.130;2023-08-07T03:41:49;12.40;99.90
11908;DHT22;6014;47.690;9.130;2023-08-07T03:44:17;12.40;99.90
11908;DHT22;6014;47.690;9.130;2023-08-07T03:46:45;12.40;99.90
11908;DHT22;6014;47.690;9.130;2023-08-07T03:49:22;12.40;99.90
11908;DHT22;6014;47.690;9.130;2023-08-07T03:51:50;12.40;99.90
11908;DHT22;6014;47.690;9.130;2023-08-07T03:54:20;12.30;99.90
11908;DHT22;6014;47.690;9.130;2023-08-07T03:56:48;12.30;99.90
11908;DHT22;6014;47.690;9.130;2023-08-07T03:59:17;12.30;99.90
11908;DHT22;6014;47.690;9.130;2023-08-07T04:01:45;12.40;99.90
11908;DHT22;6014;47.690;9.130;2023-08-07T04:04:13;12.30;99.90
11908;DHT22;6014;47.690;9.130;2023-08-07T04:06:41;12.30;99.90
11908;DHT22;6014;47.690;9.130;2023-08-07T04:09:10;12.30;99.90
11908;DHT22;6014;47.690;9.130;2023-08-07T04:11:40;12.30;99.90
11908;DHT22;6014;47.690;9.130;2023-08-07T04:14:08;12.40;99.90
11908;DHT22;6014;47.690;9.130;2023-08-07T04:16:37;12.40;99.90
11908;DHT22;6014;47.690;9.130;2023-08-07T04:19:06;12.40;99.90
11908;DHT22;6014;47.690;9.130;2023-08-07T04:21:34;12.40;99.90
11908;DHT22;6014;47.690;9.130;2023-08-07T04:24:03;12.40;99.90
11908;DHT22;6014;47.690;9.130;2023-08-07T04:26:37;12.40;99.90
11908;DHT22;6014;47.690;9.130;2023-08-07T04:29:06;12.40;99.90
11908;DHT22;6014;47.690;9.130;2023-08-07T04:31:35;12.50;99.90
11908;DHT22;6014;47.690;9.130;2023-08-07T04:34:03;12.40;99.90
11908;DHT22;6014;47.690;9.130;2023-08-07T04:36:31;12.50;99.90
11908;DHT22;6014;47.690;9.130;2023-08-07T04:38:59;12.60;99.90
11908;DHT22;6014;47.690;9.130;2023-08-07T04:41:34;12.70;99.90
11908;DHT22;6014;47.690;9.130;2023-08-07T04:44:02;12.70;99.90
11908;DHT22;6014;47.690;9.130;2023-08-07T04:46:32;12.70;99.90
11908;DHT22;6014;47.690;9.130;2023-08-07T04:49:01;12.70;99.90
11908;DHT22;6014;47.690;9.130;2023-08-07T04:51:31;12.70;99.90
11908;DHT22;6014;47.690;9.130;2023-08-07T04:53:59;12.70;99.90
11908;DHT22;6014;47.690;9.130;2023-08-07T04:56:27;12.80;99.90
11908;DHT22;6014;47.690;9.130;2023-08-07T04:58:55;12.80;99.90
11908;DHT22;6014;47.690;9.130;2023-08-07T05:01:24;12.80;99.90
11908;DHT22;6014;47.690;9.130;2023-08-07T05:03:53;12.80;99.90
11908;DHT22;6014;47.690;9.130;2023-08-07T05:06:21;12.90;99.90
11908;DHT22;6014;47.690;9.130;2023-08-07T05:08:51;12.90;99.90
11908;DHT22;6014;47.690;9.130;2023-08-07T05:11:19;12.90;99.90
11908;DHT22;6014;47.690;9.130;2023-08-07T05:13:47;12.90;99.90
11908;DHT22;6014;47.690;9.130;2023-08-07T05:16:16;12.80;99.90
11908;DHT22;6014;47.690;9.130;2023-08-07T05:18:45;12.90;99.90
11908;DHT22;6014;47.690;9.130;2023-08-07T05:21:18;12.80;99.90
11908;DHT22;6014;47.690;9.130;2023-08-07T05:23:46;12.80;99.90
11908;DHT22;6014;47.690;9.130;2023-08-07T05:26:16;12.80;99.90
11908;DHT22;6014;47.690;9.130;2023-08-07T05:28:44;12.80;99.90
11908;DHT22;6014;47.690;9.130;2023-08-07T05:31:12;12.80;99.90
11908;DHT22;6014;47.690;9.130;2023-08-07T05:33:41;12.80;99.90
11908;DHT22;6014;47.690;9.130;2023-08-07T05:36:09;12.90;99.90
11908;DHT22;6014;47.690;9.130;2023-08-07T05:38:38;12.90;99.90
11908;DHT22;6014;47.690;9.130;2023-08-07T05:41:08;12.90;99.90
11908;DHT22;6014;47.690;9.130;2023-08-07T05:43:36;12.90;99.90
11908;DHT22;6014;47.690;9.130;2023-08-07T05:46:04;12.90;99.90
11908;DHT22;6014;47.690;9.130;2023-08-07T05:48:32;12.90;99.90
11908;DHT22;6014;47.690;9.130;2023-08-07T05:51:00;12.90;99.90
11908;DHT22;6014;47.690;9.130;2023-08-07T05:53:28;12.90;99.90
11908;DHT22;6014;47.690;9.130;2023-08-07T05:55:58;12.90;99.90
11908;DHT22;6014;47.690;9.130;2023-08-07T05:58:26;13.00;99.90
11908;DHT22;6014;47.690;9.130;2023-08-07T06:00:54;13.00;99.90
11908;DHT22;6014;47.690;9.130;2023-08-07T06:03:22;13.00;99.90
11908;DHT22;6014;47.690;9.130;2023-08-07T06:05:50;13.00;99.90
11908;DHT22;6014;47.690;9.130;2023-08-07T06:08:18;13.00;99.90
11908;DHT22;6014;47.690;9.130;2023-08-07T06:10:47;13.00;99.90
11908;DHT22;6014;47.690;9.130;2023-08-07T06:13:18;13.10;99.90
11908;DHT22;6014;47.690;9.130;2023-08-07T06:16:02;13.10;99.90
11908;DHT22;6014;47.690;9.130;2023-08-07T06:18:30;13.20;99.90
11908;DHT22;6014;47.690;9.130;2023-08-07T06:20:58;13.20;99.90
11908;DHT22;6014;47.690;9.130;2023-08-07T06:23:26;13.30;99.90
11908;DHT22;6014;47.690;9.130;2023-08-07T06:25:54;13.20;99.90
11908;DHT22;6014;47.690;9.130;2023-08-07T06:28:27;13.30;99.90
11908;DHT22;6014;47.690;9.130;2023-08-07T06:31:00;13.40;99.90
11908;DHT22;6014;47.690;9.130;2023-08-07T06:33:29;13.40;99.90
11908;DHT22;6014;47.690;9.130;2023-08-07T06:35:57;13.20;99.90
11908;DHT22;6014;47.690;9.130;2023-08-07T06:38:26;13.30;99.90
11908;DHT22;6014;47.690;9.130;2023-08-07T06:40:56;13.40;99.90
11908;DHT22;6014;47.690;9.130;2023-08-07T06:43:28;13.40;99.90
11908;DHT22;6014;47.690;9.130;2023-08-07T06:45:57;13.50;99.90
11908;DHT22;6014;47.690;9.130;2023-08-07T06:48:26;13.60;99.90
11908;DHT22;6014;47.690;9.130;2023-08-07T06:50:56;13.60;99.90
11908;DHT22;6014;47.690;9.130;2023-08-07T06:53:24;13.70;99.90
11908;DHT22;6014;47.690;9.130;2023-08-07T06:55:52;13.60;99.90
11908;DHT22;6014;47.690;9.130;2023-08-07T06:58:32;13.50;99.90
11908;DHT22;6014;47.690;9.130;2023-08-07T07:01:01;13.40;99.90
11908;DHT22;6014;47.690;9.130;2023-08-07T07:03:29;13.30;99.90
11908;DHT22;6014;47.690;9.130;2023-08-07T07:05:57;13.40;99.90
11908;DHT22;6014;47.690;9.130;2023-08-07T07:08:25;13.30;99.90
11908;DHT22;6014;47.690;9.130;2023-08-07T07:10:53;13.40;99.90
11908;DHT22;6014;47.690;9.130;2023-08-07T07:13:21;13.40;99.90
11908;DHT22;6014;47.690;9.130;2023-08-07T07:15:54;13.50;99.90
11908;DHT22;6014;47.690;9.130;2023-08-07T07:18:22;13.50;99.90
11908;DHT22;6014;47.690;9.130;2023-08-07T07:20:58;13.40;99.90
11908;DHT22;6014;47.690;9.130;2023-08-07T07:23:27;13.40;99.90
11908;DHT22;6014;47.690;9.130;2023-08-07T07:25:55;13.30;99.90
11908;DHT22;6014;47.690;9.130;2023-08-07T07:28:24;13.40;99.90
11908;DHT22;6014;47.690;9.130;2023-08-07T07:30:53;13.50;99.90
11908;DHT22;6014;47.690;9.130;2023-08-07T07:33:22;13.60;99.90
11908;DHT22;6014;47.690;9.130;2023-08-07T07:35:50;13.80;99.90
11908;DHT22;6014;47.690;9.130;2023-08-07T07:38:18;14.00;99.90
11908;DHT22;6014;47.690;9.130;2023-08-07T07:40:46;14.20;99.90
11908;DHT22;6014;47.690;9.130;2023-08-07T07:43:14;14.40;99.90
11908;DHT22;6014;47.690;9.130;2023-08-07T07:45:43;14.40;99.90
11908;DHT22;6014;47.690;9.130;2023-08-07T07:48:15;14.90;99.90
11908;DHT22;6014;47.690;9.130;2023-08-07T07:50:43;15.50;99.90
11908;DHT22;6014;47.690;9.130;2023-08-07T07:53:11;16.30;99.90
11908;DHT22;6014;47.690;9.130;2023-08-07T07:55:39;16.60;99.90
11908;DHT22;6014;47.690;9.130;2023-08-07T07:58:07;17.10;99.90
11908;DHT22;6014;47.690;9.130;2023-08-07T08:00:37;17.10;99.90
11908;DHT22;6014;47.690;9.130;2023-08-07T08:03:05;17.70;99.90
11908;DHT22;6014;47.690;9.130;2023-08-07T08:05:41;18.10;99.90
11908;DHT22;6014;47.690;9.130;2023-08-07T08:08:11;18.20;98.70
11908;DHT22;6014;47.690;9.130;2023-08-07T08:10:40;18.10;98.20
11908;DHT22;6014;47.690;9.130;2023-08-07T08:13:09;17.20;99.20
11908;DHT22;6014;47.690;9.130;2023-08-07T08:15:37;17.20;98.90
11908;DHT22;6014;47.690;9.130;2023-08-07T08:18:05;17.80;98.80
11908;DHT22;6014;47.690;9.130;2023-08-07T08:20:42;18.00;97.80
11908;DHT22;6014;47.690;9.130;2023-08-07T08:23:10;17.80;97.80
11908;DHT22;6014;47.690;9.130;2023-08-07T08:25:38;18.00;97.30
11908;DHT22;6014;47.690;9.130;2023-08-07T08:28:06;17.60;97.80
11908;DHT22;6014;47.690;9.130;2023-08-07T08:30:35;17.70;98.00
11908;DHT22;6014;47.690;9.130;2023-08-07T08:33:03;17.90;97.00
11908;DHT22;6014;47.690;9.130;2023-08-07T08:35:32;17.60;96.90
11908;DHT22;6014;47.690;9.130;2023-08-07T08:38:01;17.60;97.00
11908;DHT22;6014;47.690;9.130;2023-08-07T08:40:31;17.60;97.70
11908;DHT22;6014;47.690;9.130;2023-08-07T08:43:00;17.70;97.00
11908;DHT22;6014;47.690;9.130;2023-08-07T08:45:31;17.20;97.10
11908;DHT22;6014;47.690;9.130;2023-08-07T08:48:03;17.20;98.20
11908;DHT22;6014;47.690;9.130;2023-08-07T08:50:32;16.90;98.10
11908;DHT22;6014;47.690;9.130;2023-08-07T08:53:04;17.20;97.80
11908;DHT22;6014;47.690;9.130;2023-08-07T08:55:44;17.50;96.20
11908;DHT22;6014;47.690;9.130;2023-08-07T08:58:15;17.50;97.40
11908;DHT22;6014;47.690;9.130;2023-08-07T09:00:44;17.80;95.80
11908;DHT22;6014;47.690;9.130;2023-08-07T09:03:12;18.20;95.00
11908;DHT22;6014;47.690;9.130;2023-08-07T09:05:41;18.80;94.60
11908;DHT22;6014;47.690;9.130;2023-08-07T09:08:11;18.20;93.00
11908;DHT22;6014;47.690;9.130;2023-08-07T09:10:39;17.90;93.10
11908;DHT22;6014;47.690;9.130;2023-08-07T09:13:11;18.50;93.60
11908;DHT22;6014;47.690;9.130;2023-08-07T09:15:41;18.30;93.20
11908;DHT22;6014;47.690;9.130;2023-08-07T09:18:15;18.60;92.40
11908;DHT22;6014;47.690;9.130;2023-08-07T09:21:03;18.60;92.40
11908;DHT22;6014;47.690;9.130;2023-08-07T09:23:43;18.70;91.70
11908;DHT22;6014;47.690;9.130;2023-08-07T09:26:11;18.80;91.60
11908;DHT22;6014;47.690;9.130;2023-08-07T09:28:39;17.80;91.70
11908;DHT22;6014;47.690;9.130;2023-08-07T09:31:07;17.20;91.80
11908;DHT22;6014;47.690;9.130;2023-08-07T09:33:36;17.40;91.40
11908;DHT22;6014;47.690;9.130;2023-08-07T09:36:06;17.70;92.60
11908;DHT22;6014;47.690;9.130;2023-08-07T09:38:36;17.80;92.50
11908;DHT22;6014;47.690;9.130;2023-08-07T09:41:06;17.20;95.60
11908;DHT22;6014;47.690;9.130;2023-08-07T09:43:34;16.50;96.90
11908;DHT22;6014;47.690;9.130;2023-08-07T09:46:03;15.90;99.90
11908;DHT22;6014;47.690;9.130;2023-08-07T09:48:39;15.40;99.90
11908;DHT22;6014;47.690;9.130;2023-08-07T09:51:07;15.00;99.90
11908;DHT22;6014;47.690;9.130;2023-08-07T09:53:36;14.60;99.90
11908;DHT22;6014;47.690;9.130;2023-08-07T09:56:05;14.20;99.90
11908;DHT22;6014;47.690;9.130;2023-08-07T09:58:33;14.00;99.90
11908;DHT22;6014;47.690;9.130;2023-08-07T10:01:03;14.10;99.90
11908;DHT22;6014;47.690;9.130;2023-08-07T10:03:32;14.10;99.90
11908;DHT22;6014;47.690;9.130;2023-08-07T10:06:02;14.00;99.90
11908;DHT22;6014;47.690;9.130;2023-08-07T10:08:32;13.50;99.90
11908;DHT22;6014;47.690;9.130;2023-08-07T10:11:02;13.20;99.90
11908;DHT22;6014;47.690;9.130;2023-08-07T10:13:42;13.10;99.90
11908;DHT22;6014;47.690;9.130;2023-08-07T10:16:11;13.00;99.90
11908;DHT22;6014;47.690;9.130;2023-08-07T10:18:40;12.90;99.90
11908;DHT22;6014;47.690;9.130;2023-08-07T10:21:08;12.90;99.90
11908;DHT22;6014;47.690;9.130;2023-08-07T10:23:43;12.90;99.90
11908;DHT22;6014;47.690;9.130;2023-08-07T10:26:14;13.00;99.90
11908;DHT22;6014;47.690;9.130;2023-08-07T10:28:45;13.20;99.90
11908;DHT22;6014;47.690;9.130;2023-08-07T10:31:14;13.30;99.90
11908;DHT22;6014;47.690;9.130;2023-08-07T10:33:42;13.70;99.90
11908;DHT22;6014;47.690;9.130;2023-08-07T10:36:19;14.70;99.90
11908;DHT22;6014;47.690;9.130;2023-08-07T10:38:49;15.80;99.90
11908;DHT22;6014;47.690;9.130;2023-08-07T10:41:19;16.20;99.90
11908;DHT22;6014;47.690;9.130;2023-08-07T10:43:48;15.60;99.90
11908;DHT22;6014;47.690;9.130;2023-08-07T10:46:20;15.20;99.90
11908;DHT22;6014;47.690;9.130;2023-08-07T10:48:54;15.00;99.90
11908;DHT22;6014;47.690;9.130;2023-08-07T10:51:31;15.40;99.90
11908;DHT22;6014;47.690;9.130;2023-08-07T10:54:01;16.50;99.90
11908;DHT22;6014;47.690;9.130;2023-08-07T10:56:34;16.50;99.90
11908;DHT22;6014;47.690;9.130;2023-08-07T10:59:10;16.80;99.90
11908;DHT22;6014;47.690;9.130;2023-08-07T11:01:50;17.70;99.90
11908;DHT22;6014;47.690;9.130;2023-08-07T11:04:19;18.00;99.90
11908;DHT22;6014;47.690;9.130;2023-08-07T11:06:52;17.20;99.90
11908;DHT22;6014;47.690;9.130;2023-08-07T11:09:36;16.50;99.90
11908;DHT22;6014;47.690;9.130;2023-08-07T11:12:05;16.20;99.90
11908;DHT22;6014;47.690;9.130;2023-08-07T11:14:41;16.10;99.90
11908;DHT22;6014;47.690;9.130;2023-08-07T11:17:09;16.70;99.90
11908;DHT22;6014;47.690;9.130;2023-08-07T11:19:47;17.40;99.90
11908;DHT22;6014;47.690;9.130;2023-08-07T11:22:15;17.90;99.90
11908;DHT22;6014;47.690;9.130;2023-08-07T11:24:44;18.10;99.90
11908;DHT22;6014;47.690;9.130;2023-08-07T11:27:13;17.80;99.90
11908;DHT22;6014;47.690;9.130;2023-08-07T11:29:47;18.00;99.90
11908;DHT22;6014;47.690;9.130;2023-08-07T11:32:15;17.50;99.90
11908;DHT22;6014;47.690;9.130;2023-08-07T11:34:48;17.20;99.90
11908;DHT22;6014;47.690;9.130;2023-08-07T11:37:16;16.90;99.90
11908;DHT22;6014;47.690;9.130;2023-08-07T11:39:44;16.00;99.80
11908;DHT22;6014;47.690;9.130;2023-08-07T11:42:13;16.60;99.80
11908;DHT22;6014;47.690;9.130;2023-08-07T11:44:42;16.60;98.50
11908;DHT22;6014;47.690;9.130;2023-08-07T11:47:21;16.90;98.10
11908;DHT22;6014;47.690;9.130;2023-08-07T11:49:52;17.80;96.80
11908;DHT22;6014;47.690;9.130;2023-08-07T11:52:23;18.30;94.50
11908;DHT22;6014;47.690;9.130;2023-08-07T11:54:52;18.30;93.60
11908;DHT22;6014;47.690;9.130;2023-08-07T11:57:20;18.60;95.10
11908;DHT22;6014;47.690;9.130;2023-08-07T11:59:51;18.80;95.00
11908;DHT22;6014;47.690;9.130;2023-08-07T12:02:26;19.10;93.30
11908;DHT22;6014;47.690;9.130;2023-08-07T12:05:04;19.60;93.80
11908;DHT22;6014;47.690;9.130;2023-08-07T12:07:41;19.60;93.20
11908;DHT22;6014;47.690;9.130;2023-08-07T12:10:10;19.10;92.90
11908;DHT22;6014;47.690;9.130;2023-08-07T12:12:39;19.60;93.20
11908;DHT22;6014;47.690;9.130;2023-08-07T12:15:10;18.90;93.60
11908;DHT22;6014;47.690;9.130;2023-08-07T12:18:00;18.60;95.40
11908;DHT22;6014;47.690;9.130;2023-08-07T12:20:37;18.40;94.20
11908;DHT22;6014;47.690;9.130;2023-08-07T12:23:13;18.10;95.80
11908;DHT22;6014;47.690;9.130;2023-08-07T12:26:13;17.90;96.70
11908;DHT22;6014;47.690;9.130;2023-08-07T12:28:52;17.30;99.90
11908;DHT22;6014;47.690;9.130;2023-08-07T12:31:22;16.70;99.90
11908;DHT22;6014;47.690;9.130;2023-08-07T12:33:51;16.50;99.90
11908;DHT22;6014;47.690;9.130;2023-08-07T12:36:20;16.70;99.90
11908;DHT22;6014;47.690;9.130;2023-08-07T12:38:49;16.70;99.90
11908;DHT22;6014;47.690;9.130;2023-08-07T12:41:19;17.40;99.90
11908;DHT22;6014;47.690;9.130;2023-08-07T12:43:52;17.90;99.90
11908;DHT22;6014;47.690;9.130;2023-08-07T12:46:23;19.00;99.90
11908;DHT22;6014;47.690;9.130;2023-08-07T12:48:54;19.80;97.00
11908;DHT22;6014;47.690;9.130;2023-08-07T12:51:28;19.80;93.20
11908;DHT22;6014;47.690;9.130;2023-08-07T12:53:56;20.50;91.40
11908;DHT22;6014;47.690;9.130;2023-08-07T12:56:25;20.60;90.70
11908;DHT22;6014;47.690;9.130;2023-08-07T12:58:54;20.60;88.40
11908;DHT22;6014;47.690;9.130;2023-08-07T13:01:27;20.40;87.30
11908;DHT22;6014;47.690;9.130;2023-08-07T13:03:58;19.30;89.00
11908;DHT22;6014;47.690;9.130;2023-08-07T13:06:35;19.80;91.40
11908;DHT22;6014;47.690;9.130;2023-08-07T13:09:04;19.90;89.50
11908;DHT22;6014;47.690;9.130;2023-08-07T13:11:32;19.10;86.80
11908;DHT22;6014;47.690;9.130;2023-08-07T13:14:00;18.70;90.50
11908;DHT22;6014;47.690;9.130;2023-08-07T13:16:30;18.50;91.00
11908;DHT22;6014;47.690;9.130;2023-08-07T13:18:58;17.70;90.10
11908;DHT22;6014;47.690;9.130;2023-08-07T13:21:27;17.20;89.20
11908;DHT22;6014;47.690;9.130;2023-08-07T13:23:57;17.20;90.10
11908;DHT22;6014;47.690;9.130;2023-08-07T13:26:26;17.20;90.10
11908;DHT22;6014;47.690;9.130;2023-08-07T13:28:56;17.40;91.50
11908;DHT22;6014;47.690;9.130;2023-08-07T13:31:24;18.30;90.90
11908;DHT22;6014;47.690;9.130;2023-08-07T13:33:55;18.80;90.20
11908;DHT22;6014;47.690;9.130;2023-08-07T13:36:24;18.60;91.30
11908;DHT22;6014;47.690;9.130;2023-08-07T13:38:52;19.30;91.30
11908;DHT22;6014;47.690;9.130;2023-08-07T13:41:20;19.40;90.90
11908;DHT22;6014;47.690;9.130;2023-08-07T13:43:48;19.00;90.20
11908;DHT22;6014;47.690;9.130;2023-08-07T13:46:16;19.80;88.40
11908;DHT22;6014;47.690;9.130;2023-08-07T13:48:52;20.80;87.70
11908;DHT22;6014;47.690;9.130;2023-08-07T13:51:22;21.10;86.20
11908;DHT22;6014;47.690;9.130;2023-08-07T13:53:50;21.20;83.10
11908;DHT22;6014;47.690;9.130;2023-08-07T13:56:19;21.20;80.30
11908;DHT22;6014;47.690;9.130;2023-08-07T13:58:48;21.20;81.60
11908;DHT22;6014;47.690;9.130;2023-08-07T14:01:17;21.40;77.30
11908;DHT22;6014;47.690;9.130;2023-08-07T14:03:45;21.40;75.40
11908;DHT22;6014;47.690;9.130;2023-08-07T14:06:30;22.30;77.10
11908;DHT22;6014;47.690;9.130;2023-08-07T14:09:01;22.40;68.20
11908;DHT22;6014;47.690;9.130;2023-08-07T14:11:41;21.70;66.20
11908;DHT22;6014;47.690;9.130;2023-08-07T14:14:09;20.50;70.70
11908;DHT22;6014;47.690;9.130;2023-08-07T14:16:41;19.40;71.60
11908;DHT22;6014;47.690;9.130;2023-08-07T14:19:09;18.90;75.60
11908;DHT22;6014;47.690;9.130;2023-08-07T14:21:39;18.00;90.80
11908;DHT22;6014;47.690;9.130;2023-08-07T14:24:07;17.00;95.80
11908;DHT22;6014;47.690;9.130;2023-08-07T14:26:35;16.20;99.90
11908;DHT22;6014;47.690;9.130;2023-08-07T14:29:03;15.70;99.90
11908;DHT22;6014;47.690;9.130;2023-08-07T14:31:31;15.40;99.90
11908;DHT22;6014;47.690;9.130;2023-08-07T14:33:59;15.30;99.90
11908;DHT22;6014;47.690;9.130;2023-08-07T14:36:27;15.40;99.90
11908;DHT22;6014;47.690;9.130;2023-08-07T14:38:57;15.70;99.90
11908;DHT22;6014;47.690;9.130;2023-08-07T14:41:26;16.00;99.90
11908;DHT22;6014;47.690;9.130;2023-08-07T14:43:56;16.00;99.90
11908;DHT22;6014;47.690;9.130;2023-08-07T14:46:24;16.10;99.90
11908;DHT22;6014;47.690;9.130;2023-08-07T14:48:52;16.10;99.90
11908;DHT22;6014;47.690;9.130;2023-08-07T14:51:21;16.00;99.90
11908;DHT22;6014;47.690;9.130;2023-08-07T14:54:03;16.10;99.90
11908;DHT22;6014;47.690;9.130;2023-08-07T14:56:31;16.40;99.90
11908;DHT22;6014;47.690;9.130;2023-08-07T14:59:03;17.40;99.90
11908;DHT22;6014;47.690;9.130;2023-08-07T15:01:33;18.90;99.90
11908;DHT22;6014;47.690;9.130;2023-08-07T15:04:01;19.10;99.90
11908;DHT22;6014;47.690;9.130;2023-08-07T15:06:29;19.80;99.80
11908;DHT22;6014;47.690;9.130;2023-08-07T15:08:59;20.20;98.90
11908;DHT22;6014;47.690;9.130;2023-08-07T15:11:29;20.40;97.40
11908;DHT22;6014;47.690;9.130;2023-08-07T15:13:57;20.70;94.00
11908;DHT22;6014;47.690;9.130;2023-08-07T15:16:25;20.90;89.40
11908;DHT22;6014;47.690;9.130;2023-08-07T15:18:53;21.30;90.50
11908;DHT22;6014;47.690;9.130;2023-08-07T15:21:21;21.40;86.60
11908;DHT22;6014;47.690;9.130;2023-08-07T15:23:51;21.50;86.70
11908;DHT22;6014;47.690;9.130;2023-08-07T15:26:23;21.00;79.20
11908;DHT22;6014;47.690;9.130;2023-08-07T15:28:53;20.40;82.20
11908;DHT22;6014;47.690;9.130;2023-08-07T15:31:25;20.90;79.60
11908;DHT22;6014;47.690;9.130;2023-08-07T15:33:54;21.20;80.80
11908;DHT22;6014;47.690;9.130;2023-08-07T15:36:24;20.10;80.40
11908;DHT22;6014;47.690;9.130;2023-08-07T15:38:58;19.00;78.60
11908;DHT22;6014;47.690;9.130;2023-08-07T15:41:26;18.60;85.30
11908;DHT22;6014;47.690;9.130;2023-08-07T15:44:02;18.10;85.30
11908;DHT22;6014;47.690;9.130;2023-08-07T15:46:31;17.80;86.00
11908;DHT22;6014;47.690;9.130;2023-08-07T15:49:06;17.60;90.60
11908;DHT22;6014;47.690;9.130;2023-08-07T15:51:34;16.50;96.50
11908;DHT22;6014;47.690;9.130;2023-08-07T15:54:04;15.70;99.90
11908;DHT22;6014;47.690;9.130;2023-08-07T15:56:32;15.30;99.90
11908;DHT22;6014;47.690;9.130;2023-08-07T15:59:04;15.20;99.90
11908;DHT22;6014;47.690;9.130;2023-08-07T16:01:32;15.20;99.90
11908;DHT22;6014;47.690;9.130;2023-08-07T16:04:01;15.20;99.90